Time;durP1;ratioP1;P1;durP2;ratioP2;P2;SDS_P1;SDS_P2;PMS_P1;PMS_P2;Temp;Humidity;BMP_temperature;BMP_pressure;BME280_temperature;BME280_humidity;BME280_pressure;Samples;Min_cycle;Max_cycle;Signal;HPM_P1;HPM_P2
2022/10/15 00:01:48;;;;;;;12.45;9.80;;;19.70;90.50;;;19.57;52.13;98714.63;5076465;27;20039;-77
2022/10/15 00:04:14;;;;;;;14.07;10.70;;;19.70;90.40;;;19.58;52.38;98710.72;5062559;28;20062;-77
2022/10/15 00:06:40;;;;;;;13.38;10.00;;;19.70;90.40;;;19.61;52.45;98704.56;5065256;28;20040;-77
2022/10/15 00:09:06;;;;;;;13.10;10.07;;;19.70;90.60;;;19.57;52.55;98703.63;5070110;28;20050;-77
2022/10/15 00:11:32;;;;;;;18.85;11.30;;;19.60;90.70;;;19.58;52.45;98704.44;5048853;28;20062;-77
2022/10/15 00:13:59;;;;;;;11.05;9.35;;;19.70;90.60;;;19.57;52.35;98700.88;5056676;28;20493;-77
2022/10/15 00:16:27;;;;;;;11.27;9.85;;;19.60;90.50;;;19.55;52.56;98697.66;5068701;28;20039;-77
2022/10/15 00:18:57;;;;;;;10.02;8.13;;;19.60;90.50;;;19.55;52.36;98699.59;5052794;28;20052;-77
2022/10/15 00:21:23;;;;;;;11.02;9.10;;;19.60;90.50;;;19.56;52.68;98696.50;5055364;28;20100;-77
2022/10/15 00:23:49;;;;;;;12.93;10.35;;;19.60;90.70;;;19.52;52.61;98698.34;5056497;28;20040;-77
2022/10/15 00:26:18;;;;;;;13.07;9.82;;;19.60;90.80;;;19.53;52.84;98689.72;5066062;28;20101;-77
2022/10/15 00:28:44;;;;;;;14.63;9.23;;;19.60;90.80;;;19.55;52.38;98691.34;5069680;28;20070;-77
2022/10/15 00:31:13;;;;;;;14.80;9.90;;;19.60;90.60;;;19.53;52.45;98700.72;5073073;28;20387;-77
2022/10/15 00:33:39;;;;;;;13.30;9.43;;;19.60;90.60;;;19.52;52.40;98688.13;5070392;28;20496;-77
2022/10/15 00:36:14;;;;;;;11.63;9.73;;;19.60;90.50;;;19.53;52.43;98694.44;5051700;28;20043;-77
2022/10/15 00:38:41;;;;;;;13.35;9.48;;;19.60;90.50;;;19.53;52.75;98688.91;5072335;28;20646;-77
2022/10/15 00:41:07;;;;;;;13.52;9.20;;;19.60;90.70;;;19.53;52.97;98691.69;5082414;28;20047;-77
2022/10/15 00:43:46;;;;;;;12.65;9.63;;;19.60;90.80;;;19.50;52.58;98684.09;5068851;28;20046;-77
2022/10/15 00:46:17;;;;;;;15.10;10.43;;;19.60;90.70;;;19.49;52.44;98682.50;5072219;28;20105;-77
2022/10/15 00:48:44;;;;;;;18.40;10.73;;;19.50;91.00;;;19.47;52.39;98684.78;5072212;28;20063;-77
2022/10/15 00:51:09;;;;;;;14.50;10.43;;;19.50;90.60;;;19.47;52.63;98679.28;5054297;28;20046;-77
2022/10/15 00:53:36;;;;;;;13.20;9.25;;;19.50;90.60;;;19.47;52.68;98685.56;5054664;28;20040;-77
2022/10/15 00:56:02;;;;;;;12.15;9.15;;;19.50;90.70;;;19.49;53.05;98668.75;5050085;28;20505;-77
2022/10/15 00:58:29;;;;;;;12.50;8.73;;;19.50;90.80;;;19.51;52.95;98669.19;5068715;28;20032;-77
2022/10/15 01:00:56;;;;;;;14.93;9.82;;;19.50;90.90;;;19.49;52.56;98671.50;5069230;28;20060;-77
2022/10/15 01:03:22;;;;;;;12.35;9.43;;;19.50;90.60;;;19.47;52.50;98663.56;5080837;28;20043;-77
2022/10/15 01:05:49;;;;;;;10.98;9.68;;;19.50;90.60;;;19.44;52.70;98664.25;5078814;28;20050;-77
2022/10/15 01:08:15;;;;;;;11.75;9.57;;;19.50;90.60;;;19.45;52.63;98667.78;5052324;28;20051;-77
2022/10/15 01:11:16;;;;;;;12.50;9.77;;;19.50;90.60;;;19.49;52.86;98664.03;5119602;28;20035;-77
2022/10/15 01:14:06;;;;;;;14.77;10.13;;;19.50;90.80;;;19.49;52.71;98655.78;5075924;28;20055;-77
2022/10/15 01:16:48;;;;;;;12.27;9.65;;;19.50;90.80;;;19.47;52.65;98662.78;5088650;28;20035;-77
2022/10/15 01:19:35;;;;;;;12.50;9.40;;;19.50;90.70;;;19.46;52.64;98661.13;5080522;28;20039;-77
2022/10/15 01:22:42;;;;;;;16.40;10.80;;;19.50;90.60;;;19.42;52.38;98654.72;5119383;27;20117;-77
2022/10/15 01:25:33;;;;;;;12.40;9.65;;;19.50;90.60;;;19.45;52.54;98656.78;5110264;27;20110;-77
2022/10/15 01:28:41;;;;;;;16.23;10.75;;;19.50;90.60;;;19.47;52.78;98652.56;5100886;27;20126;-77
2022/10/15 01:31:25;;;;;;;13.25;9.40;;;19.50;90.80;;;19.45;52.81;98659.53;5104890;27;20031;-77
2022/10/15 01:34:30;;;;;;;12.45;9.40;;;19.50;90.80;;;19.42;52.62;98663.78;5108898;27;20044;-77
2022/10/15 01:38:04;;;;;;;10.68;8.55;;;19.50;90.70;;;19.43;52.66;98667.31;5059768;27;20054;-77
2022/10/15 01:40:34;;;;;;;12.70;9.73;;;19.50;90.70;;;19.45;52.47;98654.03;5025749;28;20065;-77
2022/10/15 01:43:03;;;;;;;15.23;9.43;;;19.40;90.60;;;19.43;53.10;98651.63;5093454;27;20055;-77
2022/10/15 01:45:48;;;;;;;14.90;9.68;;;19.50;90.80;;;19.46;53.03;98647.38;5058503;27;20038;-77
2022/10/15 01:48:14;;;;;;;12.68;9.35;;;19.50;90.90;;;19.40;52.75;98649.53;5080573;27;20035;-77
2022/10/15 01:50:46;;;;;;;11.20;9.50;;;19.50;90.80;;;19.40;52.70;98652.28;5089889;27;20061;-77
2022/10/15 01:53:15;;;;;;;16.70;10.10;;;19.40;90.60;;;19.43;52.42;98645.31;5078643;27;20039;-77
2022/10/15 01:55:41;;;;;;;11.27;9.82;;;19.40;90.60;;;19.39;52.65;98644.41;5073093;27;20027;-77
2022/10/15 01:58:08;;;;;;;14.25;10.57;;;19.40;90.60;;;19.39;52.87;98647.16;5091151;27;20056;-77
2022/10/15 02:00:34;;;;;;;10.52;8.98;;;19.50;90.80;;;19.38;52.99;98648.28;5075482;27;20035;-77
2022/10/15 02:03:01;;;;;;;11.60;8.63;;;19.40;90.80;;;19.40;53.32;98641.28;5095825;27;20055;-77
2022/10/15 02:05:35;;;;;;;13.40;9.80;;;19.40;90.80;;;19.37;52.73;98639.22;5075440;27;20130;-77
2022/10/15 02:08:23;;;;;;;11.15;9.25;;;19.40;90.70;;;19.38;52.66;98637.25;5075113;27;20039;-77
2022/10/15 02:11:04;;;;;;;11.25;9.32;;;19.40;90.60;;;19.35;52.75;98638.75;5111155;27;20042;-77
2022/10/15 02:14:02;;;;;;;12.85;9.40;;;19.40;90.70;;;19.35;52.89;98638.75;5079090;27;20122;-77
2022/10/15 02:16:42;;;;;;;14.10;8.90;;;19.40;90.70;;;19.38;53.11;98632.56;5121308;27;20090;-77
2022/10/15 02:19:25;;;;;;;12.88;10.30;;;19.40;90.90;;;19.39;52.93;98633.41;5091505;27;20039;-77
2022/10/15 02:22:06;;;;;;;12.20;8.85;;;19.40;90.90;;;19.37;52.85;98635.66;5092654;27;20040;-77
2022/10/15 02:24:54;;;;;;;12.90;9.60;;;19.40;90.70;;;19.37;52.68;98635.66;5105190;27;20043;-77
2022/10/15 02:27:21;;;;;;;11.43;9.55;;;19.40;90.70;;;19.35;52.83;98635.19;5096471;27;20113;-76
2022/10/15 02:29:49;;;;;;;10.85;9.20;;;19.30;90.70;;;19.35;52.77;98632.44;5089922;27;20127;-77
2022/10/15 02:32:15;;;;;;;13.90;8.98;;;19.30;90.70;;;19.40;53.00;98635.00;5074256;27;20099;-76
2022/10/15 02:34:41;;;;;;;12.50;9.73;;;19.40;90.90;;;19.40;52.82;98629.50;5073071;27;20035;-77
2022/10/15 02:37:07;;;;;;;12.25;9.15;;;19.40;90.90;;;19.35;52.93;98633.25;5055815;27;20121;-76
2022/10/15 02:39:33;;;;;;;10.30;8.85;;;19.40;90.80;;;19.33;52.68;98629.22;5072449;28;20036;-77
2022/10/15 02:41:59;;;;;;;13.13;9.80;;;19.30;90.70;;;19.31;52.75;98624.06;5081570;27;20470;-77
2022/10/15 02:44:26;;;;;;;11.60;9.18;;;19.30;90.70;;;19.32;52.75;98617.41;5094370;27;20487;-77
2022/10/15 02:46:52;;;;;;;11.43;9.15;;;19.30;90.70;;;19.35;53.00;98614.00;5094705;27;20170;-77
2022/10/15 02:49:18;;;;;;;10.75;8.63;;;19.30;90.80;;;19.32;53.13;98608.38;5088449;27;20436;-77
2022/10/15 02:51:44;;;;;;;14.63;9.25;;;19.30;90.90;;;19.34;53.19;98606.09;5104874;27;20073;-77
2022/10/15 02:54:10;;;;;;;11.73;9.88;;;19.30;90.90;;;19.34;52.83;98606.09;5073256;27;20039;-77
2022/10/15 02:56:38;;;;;;;12.38;9.30;;;19.40;90.80;;;19.32;52.72;98600.13;5108112;27;20050;-77
2022/10/15 02:59:05;;;;;;;13.05;9.55;;;19.30;90.70;;;19.28;52.81;98595.31;5089337;27;20039;-77
2022/10/15 03:01:31;;;;;;;11.30;9.10;;;19.30;90.70;;;19.29;52.71;98598.84;5093831;27;20043;-77
2022/10/15 03:03:58;;;;;;;10.68;9.02;;;19.30;90.70;;;19.27;53.12;98607.41;5071926;27;20562;-77
2022/10/15 03:06:24;;;;;;;13.10;9.77;;;19.30;90.90;;;19.28;53.28;98606.31;5074000;27;20043;-77
2022/10/15 03:08:50;;;;;;;12.70;8.95;;;19.30;90.90;;;19.29;53.10;98602.41;5089412;27;20216;-77
2022/10/15 03:11:16;;;;;;;15.75;9.77;;;19.30;90.80;;;19.29;52.80;98605.16;5092290;27;20042;-77
2022/10/15 03:13:43;;;;;;;10.50;8.88;;;19.30;90.70;;;19.30;53.01;98598.50;5101671;27;20707;-77
2022/10/15 03:16:09;;;;;;;14.52;10.05;;;19.30;90.70;;;19.27;52.92;98596.41;5087622;27;20035;-77
2022/10/15 03:18:35;;;;;;;16.75;10.25;;;19.30;90.70;;;19.28;53.11;98595.31;5077114;27;20096;-77
2022/10/15 03:21:02;;;;;;;11.80;9.63;;;19.30;90.80;;;19.28;53.32;98597.22;5089052;27;20116;-77
2022/10/15 03:23:28;;;;;;;12.00;9.65;;;19.30;91.00;;;19.23;53.38;98592.75;5092301;27;20061;-77
2022/10/15 03:25:54;;;;;;;11.45;8.85;;;19.30;91.00;;;19.25;53.21;98598.69;5088178;27;20043;-77
2022/10/15 03:28:21;;;;;;;11.02;8.95;;;19.30;90.80;;;19.25;53.00;98595.94;5092660;27;20043;-77
2022/10/15 03:30:47;;;;;;;9.60;8.27;;;19.30;90.70;;;19.26;53.14;98597.56;5077601;27;20042;-77
2022/10/15 03:33:13;;;;;;;12.82;10.18;;;19.30;90.70;;;19.25;52.83;98590.44;5070818;27;20795;-77
2022/10/15 03:35:39;;;;;;;12.20;9.20;;;19.30;90.70;;;19.29;52.88;98590.59;5069080;27;20055;-77
2022/10/15 03:38:06;;;;;;;13.20;9.38;;;19.30;90.80;;;19.28;53.09;98584.31;5107134;27;20615;-77
2022/10/15 03:40:33;;;;;;;13.95;10.55;;;19.30;91.00;;;19.26;53.12;98589.31;5088810;27;20050;-77
2022/10/15 03:42:59;;;;;;;13.02;9.85;;;19.30;91.00;;;19.25;53.20;98590.44;5092341;27;20031;-77
2022/10/15 03:45:25;;;;;;;10.07;8.95;;;19.30;90.80;;;19.22;53.27;98582.88;5093402;27;20069;-77
2022/10/15 03:47:51;;;;;;;12.77;9.35;;;19.20;90.70;;;19.26;52.87;98581.06;5089167;27;20043;-77
2022/10/15 03:50:18;;;;;;;11.77;9.05;;;19.30;90.70;;;19.25;52.90;98581.41;5075376;27;20485;-77
2022/10/15 03:52:44;;;;;;;14.48;9.23;;;19.20;90.60;;;19.24;53.12;98568.81;5075993;27;20447;-77
2022/10/15 03:55:10;;;;;;;10.93;8.68;;;19.30;90.80;;;19.23;52.48;98565.25;5091882;27;20043;-77
2022/10/15 03:57:41;;;;;;;15.02;11.50;;;19.30;90.50;;;19.23;52.32;98564.44;5107942;27;20597;-77
2022/10/15 04:00:07;;;;;;;13.65;10.02;;;19.30;90.40;;;19.20;52.36;98570.59;5105751;27;20490;-77
2022/10/15 04:02:34;;;;;;;14.48;10.55;;;19.30;90.70;;;19.19;52.45;98575.31;5079288;27;20131;-77
2022/10/15 04:05:01;;;;;;;14.38;10.10;;;19.20;90.40;;;19.27;52.53;98573.63;5071320;28;20137;-77
2022/10/15 04:07:26;;;;;;;11.98;10.48;;;19.30;90.70;;;19.24;53.00;98571.56;5092681;27;20366;-77
2022/10/15 04:09:52;;;;;;;13.43;9.45;;;19.30;90.70;;;19.19;52.58;98572.56;5075123;27;20043;-77
2022/10/15 04:12:19;;;;;;;12.68;9.43;;;19.20;90.50;;;19.19;52.39;98575.31;5106153;27;20089;-77
2022/10/15 04:14:44;;;;;;;13.68;9.80;;;19.30;90.40;;;19.17;52.26;98576.78;5088780;27;20047;-77
2022/10/15 04:17:10;;;;;;;14.10;10.45;;;19.20;90.30;;;19.18;52.04;98579.19;5057697;27;20383;-77
2022/10/15 04:19:37;;;;;;;13.15;10.13;;;19.20;90.20;;;19.17;52.31;98574.84;5080188;27;20078;-77
2022/10/15 04:22:03;;;;;;;12.65;9.70;;;19.20;90.40;;;19.21;52.63;98577.69;5123248;27;20032;-77
2022/10/15 04:24:29;;;;;;;13.77;9.93;;;19.20;90.60;;;19.20;52.84;98573.34;5090153;27;20039;-77
2022/10/15 04:26:55;;;;;;;11.90;9.18;;;19.20;90.70;;;19.14;52.49;98567.25;5085790;27;20040;-77
2022/10/15 04:29:21;;;;;;;11.85;8.98;;;19.20;90.40;;;19.16;52.07;98565.00;5094990;27;20046;-77
2022/10/15 04:31:47;;;;;;;15.95;11.02;;;19.20;90.30;;;19.14;52.02;98567.25;5073385;27;20052;-77
2022/10/15 04:34:13;;;;;;;15.55;10.50;;;19.20;90.20;;;19.14;52.21;98572.75;5077552;27;20118;-77
2022/10/15 04:36:39;;;;;;;13.80;10.48;;;19.20;90.20;;;19.14;52.53;98571.97;5080113;27;20050;-77
2022/10/15 04:39:06;;;;;;;15.63;11.32;;;19.20;90.60;;;19.15;52.68;98571.59;5095087;27;20040;-76
2022/10/15 04:41:32;;;;;;;12.48;9.55;;;19.20;90.60;;;19.18;52.47;98572.88;5075953;27;20041;-77
2022/10/15 04:43:58;;;;;;;13.80;9.50;;;19.20;90.60;;;19.15;52.06;98557.84;5102956;28;20039;-77
2022/10/15 04:46:24;;;;;;;12.73;10.43;;;19.20;90.30;;;19.12;52.06;98558.53;5079057;27;20035;-76
2022/10/15 04:48:51;;;;;;;12.82;9.88;;;19.20;90.20;;;19.11;51.98;98545.94;5107197;27;20071;-76
2022/10/15 04:51:19;;;;;;;14.80;10.02;;;19.20;90.10;;;19.14;52.07;98553.50;5073120;28;20044;-77
2022/10/15 04:53:45;;;;;;;13.85;9.85;;;19.20;90.20;;;19.14;52.35;98550.78;5073292;28;20063;-77
2022/10/15 04:56:17;;;;;;;15.60;9.38;;;19.20;90.50;;;19.16;52.39;98553.16;5056254;28;20039;-77
2022/10/15 04:58:44;;;;;;;11.30;9.02;;;19.20;90.60;;;19.12;52.07;98547.53;5079263;28;20054;-77
2022/10/15 05:01:13;;;;;;;11.88;10.43;;;19.20;90.30;;;19.11;51.97;98556.94;5086030;28;20039;-78
2022/10/15 05:03:41;;;;;;;13.82;9.25;;;19.10;90.20;;;19.09;51.94;98557.28;5088215;28;20131;-77
2022/10/15 05:06:26;;;;;;;13.45;10.07;;;19.10;90.10;;;19.08;51.88;98552.09;5051908;28;20069;-77
2022/10/15 05:08:52;;;;;;;15.38;10.50;;;19.10;90.10;;;19.12;52.27;98549.50;5064274;28;20044;-77
2022/10/15 05:11:24;;;;;;;12.05;9.73;;;19.20;90.40;;;19.15;52.47;98555.13;5069436;28;20046;-77
2022/10/15 05:13:50;;;;;;;;;;;19.10;90.40;;;19.13;52.25;98546.38;5036952;28;20758;-77
2022/10/15 05:16:18;;;;;;;11.90;9.82;;;19.10;90.30;;;19.13;51.72;98543.63;5064694;28;19935;-77
2022/10/15 05:18:46;;;;;;;13.70;9.77;;;19.10;90.10;;;19.11;51.70;98545.94;5055230;28;20048;-77
2022/10/15 05:21:12;;;;;;;11.90;9.65;;;19.10;90.10;;;19.07;51.84;98547.75;5046139;28;20118;-77
2022/10/15 05:23:39;;;;;;;14.50;10.20;;;19.10;90.00;;;19.08;51.88;98547.41;5067961;28;20040;-77
2022/10/15 05:26:11;;;;;;;12.07;9.50;;;19.10;90.10;;;19.13;52.33;98549.13;5067393;28;20079;-77
2022/10/15 05:28:37;;;;;;;16.15;9.95;;;19.10;90.40;;;19.15;52.49;98541.38;5056632;28;20089;-77
2022/10/15 05:31:05;;;;;;;10.27;8.18;;;19.10;90.50;;;19.09;51.91;98542.72;5063965;28;20130;-77
2022/10/15 05:33:31;;;;;;;15.85;10.10;;;19.10;90.30;;;19.07;51.71;98550.50;5056763;28;20147;-77
2022/10/15 05:35:56;;;;;;;13.10;9.90;;;19.10;90.10;;;19.08;51.74;98554.84;5100844;28;20047;-77
2022/10/15 05:38:23;;;;;;;19.17;11.25;;;19.10;90.00;;;19.09;51.67;98551.78;5068281;28;20035;-77
2022/10/15 05:40:49;;;;;;;13.85;9.23;;;19.10;90.00;;;19.09;52.05;98564.72;5084974;28;20817;-80
2022/10/15 05:43:15;;;;;;;13.25;9.90;;;19.10;90.20;;;19.12;52.20;98558.53;5055781;28;20048;-78
2022/10/15 05:45:41;;;;;;;11.40;8.32;;;19.10;90.50;;;19.18;52.27;98559.94;5071156;28;20040;-77
2022/10/15 05:48:07;;;;;;;11.48;8.82;;;19.10;90.50;;;19.13;51.83;98557.38;5044425;28;20047;-77
2022/10/15 05:50:33;;;;;;;14.98;10.35;;;19.10;90.10;;;19.13;51.55;98560.13;5053066;28;20032;-78
2022/10/15 05:52:59;;;;;;;11.38;9.52;;;19.10;90.10;;;19.09;51.79;98564.72;5066600;28;20035;-79
2022/10/15 05:55:25;;;;;;;12.68;10.00;;;19.10;90.10;;;19.14;51.73;98566.47;5065732;28;20043;-78
2022/10/15 05:57:51;;;;;;;13.25;9.93;;;19.10;90.20;;;19.13;51.64;98571.13;5081390;28;20043;-79
2022/10/15 06:00:17;;;;;;;14.88;9.15;;;19.10;90.20;;;19.12;51.71;98575.03;5056591;28;20043;-78
2022/10/15 06:02:43;;;;;;;12.55;9.27;;;19.10;90.10;;;19.16;51.96;98570.50;5088960;28;20364;-78
2022/10/15 06:05:09;;;;;;;18.55;10.25;;;19.10;90.20;;;19.19;52.02;98569.81;5057650;28;20059;-78
2022/10/15 06:07:36;;;;;;;15.18;8.73;;;19.10;90.40;;;19.22;52.10;98571.06;5068611;27;20123;-78
2022/10/15 06:10:04;;;;;;;11.98;9.15;;;19.10;90.40;;;19.16;52.27;98576.00;5079015;27;20055;-79
2022/10/15 06:12:30;;;;;;;8.68;7.75;;;19.10;90.40;;;19.18;52.02;98579.19;5071795;27;20047;-78
2022/10/15 06:14:56;;;;;;;11.32;8.93;;;19.10;90.30;;;19.24;52.33;98583.34;5071180;27;20039;-78
2022/10/15 06:17:22;;;;;;;11.10;8.68;;;19.10;90.70;;;19.23;51.94;98587.25;5086814;27;20104;-78
2022/10/15 06:19:48;;;;;;;13.18;8.85;;;19.10;90.40;;;19.26;52.37;98580.28;5100464;27;20070;-77
2022/10/15 06:22:14;;;;;;;13.95;9.85;;;19.10;90.60;;;19.26;52.18;98583.03;5088604;27;20031;-77
2022/10/15 06:24:40;;;;;;;11.57;9.55;;;19.10;90.70;;;19.27;52.34;98585.44;5101882;28;20036;-77
2022/10/15 06:27:07;;;;;;;11.52;9.05;;;19.10;90.70;;;19.22;52.13;98590.31;5088906;27;20039;-78
2022/10/15 06:29:36;;;;;;;11.85;9.20;;;19.10;90.80;;;19.25;51.90;98592.41;5086831;27;20121;-78
2022/10/15 06:32:02;;;;;;;10.80;8.57;;;19.10;90.40;;;19.25;51.84;98595.16;5075456;28;20040;-78
2022/10/15 06:34:28;;;;;;;11.23;9.02;;;19.10;90.40;;;19.23;52.03;98583.69;5099618;27;20039;-78
2022/10/15 06:36:54;;;;;;;11.55;8.77;;;19.10;90.40;;;19.29;52.29;98591.41;5086148;27;20119;-78
2022/10/15 06:39:20;;;;;;;10.93;8.07;;;19.20;90.60;;;19.28;52.34;98577.97;5070010;27;20051;-78
2022/10/15 06:41:46;;;;;;;13.02;9.27;;;19.20;90.70;;;19.27;52.33;98584.63;5073357;27;20036;-78
2022/10/15 06:44:12;;;;;;;13.45;9.43;;;19.20;90.60;;;19.27;51.89;98587.38;5085702;27;20289;-78
2022/10/15 06:46:38;;;;;;;11.35;10.20;;;19.20;90.40;;;19.29;52.01;98574.09;5092141;27;20051;-78
2022/10/15 06:49:04;;;;;;;11.38;8.93;;;19.20;90.40;;;19.29;51.76;98582.34;5060455;28;20440;-78
2022/10/15 06:51:30;;;;;;;14.70;9.77;;;19.20;90.40;;;19.29;52.38;98577.66;5091369;27;20095;-78
2022/10/15 06:53:57;;;;;;;11.73;8.88;;;19.20;90.50;;;19.36;52.00;98579.03;5075699;27;20047;-78
2022/10/15 06:56:23;;;;;;;13.52;8.52;;;19.20;90.60;;;19.35;52.29;98577.44;5107152;27;20494;-78
2022/10/15 06:58:49;;;;;;;11.70;9.43;;;19.20;90.60;;;19.30;52.11;98570.19;5091747;27;20413;-78
2022/10/15 07:01:16;;;;;;;14.40;9.75;;;19.20;90.50;;;19.33;51.82;98575.00;5070621;27;20050;-78
2022/10/15 07:03:42;;;;;;;11.93;8.45;;;19.20;90.40;;;19.29;51.87;98583.16;5069544;27;20404;-78
2022/10/15 07:06:08;;;;;;;14.90;9.23;;;19.20;90.40;;;19.28;51.93;98576.06;5098024;27;20485;-78
2022/10/15 07:08:35;;;;;;;13.27;9.15;;;19.20;90.40;;;19.35;52.21;98571.94;5055353;27;20035;-78
2022/10/15 07:11:06;;;;;;;12.10;8.85;;;19.20;90.50;;;19.33;52.26;98583.25;5090149;27;20040;-78
2022/10/15 07:13:32;;;;;;;11.90;8.95;;;19.30;90.60;;;19.35;52.11;98581.00;5070020;27;20039;-78
2022/10/15 07:16:01;;;;;;;15.52;9.15;;;19.30;90.50;;;19.40;51.84;98586.28;5053590;27;20491;-78
2022/10/15 07:18:28;;;;;;;16.30;9.45;;;19.30;90.40;;;19.39;51.97;98584.69;5086521;28;20131;-81
2022/10/15 07:20:57;;;;;;;11.60;9.43;;;19.30;90.40;;;19.43;51.76;98585.59;5117605;27;20145;-81
2022/10/15 07:23:23;;;;;;;10.25;8.10;;;19.30;90.40;;;19.46;51.72;98581.38;5103655;27;20401;-81
2022/10/15 07:25:49;;;;;;;10.90;9.10;;;19.30;90.40;;;19.46;51.88;98581.38;5059083;27;20047;-81
2022/10/15 07:28:16;;;;;;;13.73;9.65;;;19.30;90.50;;;19.47;52.11;98583.78;5073812;27;20051;-81
2022/10/15 07:30:42;;;;;;;10.77;8.23;;;19.40;90.60;;;19.49;51.72;98588.97;5048218;27;20049;-82
2022/10/15 07:33:08;;;;;;;10.57;8.23;;;19.40;90.50;;;19.50;51.78;98593.31;5085852;27;20040;-82
2022/10/15 07:35:36;;;;;;;10.13;7.78;;;19.40;90.40;;;19.51;51.57;98603.16;5105104;27;20428;-81
2022/10/15 07:38:02;;;;;;;12.70;8.55;;;19.40;90.40;;;19.50;51.70;98596.88;5069775;28;20402;-81
2022/10/15 07:40:28;;;;;;;10.88;7.65;;;19.40;90.30;;;19.53;51.83;98600.88;5102693;27;20493;-81
2022/10/15 07:42:56;;;;;;;9.88;7.93;;;19.40;90.50;;;19.56;52.07;98597.47;5098361;27;20449;-82
2022/10/15 07:45:23;;;;;;;11.82;7.95;;;19.40;90.60;;;19.53;51.85;98598.94;5087730;27;20088;-81
2022/10/15 07:47:49;;;;;;;10.13;8.35;;;19.50;90.50;;;19.54;51.71;98588.75;5059502;27;20075;-81
2022/10/15 07:50:15;;;;;;;11.15;8.60;;;19.40;90.40;;;19.51;51.76;98595.75;5077942;27;20118;-81
2022/10/15 07:52:41;;;;;;;12.38;8.73;;;19.40;90.30;;;19.52;51.81;98599.28;5071831;27;20035;-81
2022/10/15 07:55:07;;;;;;;12.02;8.52;;;19.50;90.30;;;19.56;51.36;98593.91;5116494;27;20043;-81
2022/10/15 07:57:35;;;;;;;10.10;8.48;;;19.50;90.30;;;19.57;51.85;98592.78;5090337;27;20502;-82
2022/10/15 08:00:01;;;;;;;12.73;8.32;;;19.50;90.40;;;19.62;51.65;98585.13;5090768;27;20612;-79
2022/10/15 08:02:27;;;;;;;12.25;9.48;;;19.50;90.40;;;19.60;51.80;98590.16;5077380;28;20044;-79
2022/10/15 08:04:53;;;;;;;10.80;8.32;;;19.50;90.60;;;19.66;51.71;98593.50;5074148;28;20064;-79
2022/10/15 08:07:19;;;;;;;11.77;8.00;;;19.50;90.30;;;19.65;51.55;98602.91;5074497;27;20042;-79
2022/10/15 08:09:45;;;;;;;9.68;6.85;;;19.60;90.30;;;19.66;51.32;98590.72;5072759;27;20174;-79
2022/10/15 08:12:11;;;;;;;9.40;8.10;;;19.50;90.20;;;19.66;51.35;98594.28;5073862;27;20054;-79
2022/10/15 08:14:37;;;;;;;12.70;8.43;;;19.60;90.30;;;19.68;51.79;98592.03;5101031;27;20376;-79
2022/10/15 08:17:04;;;;;;;13.85;8.25;;;19.60;90.40;;;19.70;51.57;98595.25;5062972;28;20056;-79
2022/10/15 08:19:30;;;;;;;11.73;8.07;;;19.60;90.40;;;19.68;51.55;98586.53;5072242;28;20391;-78
2022/10/15 08:21:57;;;;;;;11.88;8.38;;;19.60;90.30;;;19.69;51.47;98596.41;5066661;27;20534;-79
2022/10/15 08:24:23;;;;;;;9.30;7.38;;;19.60;90.20;;;19.72;51.53;98592.97;5052670;28;20596;-78
2022/10/15 08:26:49;;;;;;;9.45;7.85;;;19.60;90.20;;;19.78;51.21;98582.56;5061752;27;20709;-79
2022/10/15 08:29:15;;;;;;;14.43;7.72;;;19.70;90.20;;;19.84;51.91;98583.13;5044452;28;20040;-79
2022/10/15 08:31:41;;;;;;;10.07;7.30;;;19.70;90.60;;;19.83;52.01;98582.34;5073025;27;20031;-79
2022/10/15 08:34:07;;;;;;;11.82;7.80;;;19.70;90.70;;;19.84;51.95;98572.13;5066746;27;20410;-79
2022/10/15 08:36:33;;;;;;;10.38;8.23;;;19.80;90.70;;;19.87;51.89;98580.53;5066723;27;20044;-79
2022/10/15 08:38:59;;;;;;;9.48;7.35;;;19.80;90.40;;;19.87;51.62;98582.44;5090574;28;20039;-78
2022/10/15 08:41:25;;;;;;;9.48;8.30;;;19.80;90.40;;;19.89;51.16;98578.22;5091618;27;20508;-79
2022/10/15 08:43:51;;;;;;;9.85;7.50;;;19.80;90.30;;;19.90;51.33;98587.28;5110283;27;20047;-79
2022/10/15 08:46:27;;;;;;;11.00;9.40;;;19.80;90.30;;;19.95;51.41;98589.84;5067915;28;20035;-79
2022/10/15 08:48:55;;;;;;;9.88;7.45;;;19.80;90.40;;;19.96;51.52;98580.41;5066203;27;20046;-79
2022/10/15 08:51:24;;;;;;;9.70;8.27;;;19.90;90.40;;;19.97;51.39;98575.72;5070527;28;20122;-78
2022/10/15 08:53:59;;;;;;;12.05;7.70;;;19.90;90.30;;;19.97;51.08;98573.75;5064573;28;20039;-79
2022/10/15 08:56:49;;;;;;;10.93;8.23;;;19.90;90.10;;;20.00;51.07;98573.09;5086500;28;20498;-79
2022/10/15 08:59:33;;;;;;;7.28;6.57;;;19.90;90.00;;;20.05;50.91;98574.78;5075282;28;20044;-79
2022/10/15 09:02:08;;;;;;;10.27;8.23;;;19.90;90.00;;;20.03;51.17;98572.41;5106648;28;20094;-79
2022/10/15 09:04:58;;;;;;;10.75;8.70;;;19.90;90.10;;;20.04;51.34;98565.75;5069930;28;20050;-79
2022/10/15 09:07:43;;;;;;;13.03;7.30;;;20.00;90.00;;;20.09;50.87;98573.78;5086320;28;20153;-79
2022/10/15 09:10:46;;;;;;;11.23;7.20;;;20.00;90.00;;;20.08;50.98;98571.38;5069001;28;20518;-78
2022/10/15 09:13:47;;;;;;;10.35;7.45;;;20.00;90.40;;;20.13;50.57;98577.47;5067386;28;20078;-78
2022/10/15 09:16:37;;;;;;;11.43;8.20;;;20.10;90.10;;;20.14;50.51;98573.56;5007857;28;20567;-79
2022/10/15 09:19:11;;;;;;;11.65;7.28;;;20.10;90.00;;;20.17;50.49;98581.16;5079636;28;20051;-79
2022/10/15 09:21:37;;;;;;;9.43;6.90;;;20.10;90.10;;;20.17;50.52;98591.34;5088286;28;20587;-79
2022/10/15 09:24:04;;;;;;;8.82;7.22;;;20.10;90.10;;;20.19;50.71;98593.75;5059549;28;20143;-78
2022/10/15 09:27:30;;;;;;;9.98;7.28;;;20.10;90.00;;;20.18;50.54;98598.47;5087000;28;20043;-78
2022/10/15 09:30:17;;;;;;;9.27;7.15;;;20.10;89.80;;;20.16;50.49;98593.28;5022821;28;20053;-78
2022/10/15 09:33:15;;;;;;;8.38;7.25;;;20.20;89.80;;;20.19;50.61;98588.25;5006466;28;20693;-78
2022/10/15 09:36:19;;;;;;;7.50;6.57;;;20.10;89.70;;;20.22;50.56;98587.56;5053150;28;20592;-78
2022/10/15 09:38:59;;;;;;;9.55;8.15;;;20.20;90.00;;;20.16;50.83;98596.06;5089571;28;20477;-78
2022/10/15 09:42:07;;;;;;;8.02;7.22;;;20.20;89.90;;;20.20;50.57;98589.84;5101272;28;20596;-78
2022/10/15 09:44:38;;;;;;;7.85;6.03;;;20.20;89.70;;;20.12;50.24;98595.16;5100900;27;20564;-78
2022/10/15 09:47:27;;;;;;;10.80;7.20;;;20.20;89.50;;;20.16;50.46;98592.50;5074497;27;20126;-78
2022/10/15 09:49:53;;;;;;;8.88;7.93;;;20.20;89.50;;;20.13;50.66;98594.00;5090195;28;20499;-78
2022/10/15 09:52:38;;;;;;;8.20;7.05;;;20.20;89.60;;;20.17;50.45;98597.69;5098878;28;20550;-78
2022/10/15 09:55:41;;;;;;;11.85;8.38;;;20.30;89.60;;;20.20;50.56;98598.13;5105764;27;20122;-79
2022/10/15 09:58:29;;;;;;;9.02;6.30;;;20.30;89.60;;;20.24;50.45;98596.28;5124894;27;20086;-78
2022/10/15 10:00:56;;;;;;;8.90;7.00;;;20.30;89.30;;;20.27;50.16;98598.34;5110024;27;20043;-78
2022/10/15 10:03:25;;;;;;;8.45;6.93;;;20.30;89.30;;;20.29;50.06;98599.63;5102073;27;20537;-78
2022/10/15 10:06:00;;;;;;;8.32;6.55;;;20.40;89.30;;;20.28;50.44;98594.47;5100658;27;20039;-78
2022/10/15 10:08:28;;;;;;;7.75;6.60;;;20.30;90.00;;;20.35;50.21;98606.53;5069251;27;20114;-78
2022/10/15 10:11:02;;;;;;;8.63;6.65;;;20.30;89.30;;;20.28;50.62;98602.72;5085471;28;20044;-78
2022/10/15 10:13:55;;;;;;;7.55;6.15;;;20.40;89.50;;;20.30;50.26;98590.22;5086780;27;20040;-78
2022/10/15 10:16:21;;;;;;;9.90;7.53;;;20.40;89.10;;;20.31;50.21;98593.78;5103225;27;20059;-78
2022/10/15 10:19:13;;;;;;;7.50;6.47;;;20.40;89.10;;;20.38;50.01;98596.78;5074372;27;20601;-78
2022/10/15 10:21:41;;;;;;;8.38;6.55;;;20.40;89.10;;;20.37;49.85;98595.16;5078973;27;20466;-79
2022/10/15 10:24:30;;;;;;;8.23;7.40;;;20.40;89.00;;;20.41;50.01;98596.09;5071764;27;20043;-77
2022/10/15 10:27:00;;;;;;;11.13;7.47;;;20.40;89.10;;;20.38;50.09;98597.56;5092696;27;20422;-76
2022/10/15 10:29:27;;;;;;;7.63;6.18;;;20.40;88.90;;;20.34;49.84;98596.63;5059975;27;20443;-77